createdAt,value
2023-06-15T00:02:06.522Z,100357.31
2023-06-15T00:07:08.601Z,100347.66
2023-06-15T00:12:10.582Z,100354.53
2023-06-15T00:17:13.078Z,100345.41
2023-06-15T00:22:16.219Z,100352.50
2023-06-15T00:27:17.862Z,100354.69
2023-06-15T00:32:20.598Z,100355.25
2023-06-15T00:37:22.274Z,100352.09
2023-06-15T00:42:23.899Z,100362.53
2023-06-15T00:47:25.697Z,100368.03
2023-06-15T00:52:27.489Z,100365.16
2023-06-15T00:57:29.284Z,100348.09
2023-06-15T01:02:30.942Z,100351.44
2023-06-15T01:07:36.297Z,100350.69
2023-06-15T01:12:41.641Z,100351.81
2023-06-15T01:17:47.549Z,100351.16
2023-06-15T01:23:06.210Z,100349.00
2023-06-15T01:28:10.633Z,100348.72
2023-06-15T01:33:12.796Z,100351.25
2023-06-15T01:38:15.292Z,100342.41
2023-06-15T01:43:21.849Z,100339.88
2023-06-15T01:48:24.853Z,100338.78
2023-06-15T01:53:26.672Z,100342.88
2023-06-15T01:58:28.854Z,100342.03
2023-06-15T02:03:30.508Z,100330.94
2023-06-15T02:08:32.429Z,100328.97
2023-06-15T02:13:34.105Z,100331.41
2023-06-15T02:18:38.403Z,100328.25
2023-06-15T02:23:40.222Z,100333.47
2023-06-15T02:28:42.333Z,100317.81
2023-06-15T02:33:44.195Z,100320.78
2023-06-15T02:38:46.978Z,100318.16
2023-06-15T02:43:48.702Z,100318.94
2023-06-15T02:48:53.448Z,100323.56
2023-06-15T02:53:57.251Z,100321.59
2023-06-15T02:58:59.316Z,100326.50
2023-06-15T03:04:18.340Z,100334.38
2023-06-15T03:09:22.603Z,100335.66
2023-06-15T03:14:24.296Z,100347.50
2023-06-15T03:19:26.497Z,100341.03
2023-06-15T03:24:28.337Z,100341.81
2023-06-15T03:29:32.684Z,100332.63
2023-06-15T03:34:36.487Z,100344.38
2023-06-15T03:39:38.318Z,100341.00
2023-06-15T03:44:40.717Z,100355.78
2023-06-15T03:49:42.370Z,100344.84
2023-06-15T03:54:44.275Z,100358.47
2023-06-15T03:59:46.651Z,100360.44
2023-06-15T04:04:48.450Z,100353.78
2023-06-15T04:09:50.951Z,100356.41
2023-06-15T04:14:53.061Z,100358.44
2023-06-15T04:19:55.878Z,100358.88
2023-06-15T04:24:58.638Z,100367.72
2023-06-15T04:30:00.894Z,100368.97
2023-06-15T04:35:05.102Z,100362.94
2023-06-15T04:40:10.788Z,100368.44
2023-06-15T04:45:14.411Z,100374.81
2023-06-15T04:50:16.364Z,100374.03
2023-06-15T04:55:18.459Z,100376.72
2023-06-15T05:00:21.210Z,100363.16
2023-06-15T05:05:28.012Z,100367.25
2023-06-15T05:10:44.568Z,100363.63
2023-06-15T05:15:48.308Z,100354.13
2023-06-15T05:20:52.227Z,100360.53
2023-06-15T05:25:54.304Z,100372.59
2023-06-15T05:30:56.926Z,100364.75
2023-06-15T05:35:58.981Z,100373.81
2023-06-15T05:41:00.817Z,100380.88
2023-06-15T05:46:02.539Z,100382.84
2023-06-15T05:51:04.350Z,100380.22
2023-06-15T05:56:07.356Z,100379.84
2023-06-15T06:01:09.304Z,100379.84
2023-06-15T06:06:11.008Z,100382.47
2023-06-15T06:11:12.703Z,100397.00
2023-06-15T06:16:19.552Z,100393.94
2023-06-15T06:21:21.327Z,100396.28
2023-06-15T06:26:22.956Z,100406.59
2023-06-15T06:31:24.709Z,100409.28
2023-06-15T06:36:27.111Z,100409.50
2023-06-15T06:41:28.780Z,100404.97
2023-06-15T06:46:30.451Z,100414.69
2023-06-15T06:51:32.237Z,100412.66
2023-06-15T06:56:33.887Z,100394.88
2023-06-15T07:01:35.688Z,100416.69
2023-06-15T07:06:37.410Z,100418.63
2023-06-15T07:11:39.111Z,100415.56
2023-06-15T07:16:40.726Z,100414.22
2023-06-15T07:21:42.363Z,100419.41
2023-06-15T07:26:44.027Z,100422.47
2023-06-15T07:31:49.908Z,100416.81
2023-06-15T07:36:51.825Z,100404.41
2023-06-15T07:41:54.866Z,100411.41
2023-06-15T07:46:56.544Z,100407.66
2023-06-15T07:52:07.843Z,100409.31
2023-06-15T07:57:12.017Z,100406.78
2023-06-15T08:02:13.713Z,100398.63
2023-06-15T08:07:16.397Z,100405.88
2023-06-15T08:12:18.934Z,100404.88
2023-06-15T08:17:20.593Z,100405.19
2023-06-15T08:22:22.296Z,100402.97
2023-06-15T08:27:23.943Z,100405.94
2023-06-15T08:32:25.702Z,100403.25
2023-06-15T08:37:27.673Z,100399.03
2023-06-15T08:42:29.628Z,100399.84
2023-06-15T08:47:33.463Z,100394.50
2023-06-15T08:52:35.985Z,100399.78
2023-06-15T08:57:37.658Z,100393.75
2023-06-15T09:02:44.348Z,100386.72
2023-06-15T09:07:46.420Z,100390.34
2023-06-15T09:12:49.153Z,100389.75
2023-06-15T09:17:55.036Z,100384.53
2023-06-15T09:23:03.536Z,100379.91
2023-06-15T09:28:07.386Z,100377.19
2023-06-15T09:33:19.700Z,100367.59
2023-06-15T09:38:21.305Z,100373.00
2023-06-15T09:43:23.281Z,100356.69
2023-06-15T09:48:24.918Z,100358.41
2023-06-15T09:53:29.828Z,100346.88
2023-06-15T09:58:31.899Z,100341.66
2023-06-15T10:03:34.249Z,100343.72
2023-06-15T10:08:40.071Z,100336.19
2023-06-15T10:13:53.711Z,100337.38
2023-06-15T10:19:02.747Z,100335.78
2023-06-15T10:24:13.740Z,100330.78
2023-06-15T10:29:48.697Z,100329.16
2023-06-15T10:34:56.510Z,100319.25
2023-06-15T10:40:06.718Z,100318.41
2023-06-15T10:45:29.086Z,100315.03
2023-06-15T10:50:39.729Z,100303.47
2023-06-15T10:55:41.375Z,100296.13
2023-06-15T11:00:45.117Z,100293.78
2023-06-15T11:05:46.757Z,100286.44
2023-06-15T11:10:48.495Z,100284.41
2023-06-15T11:16:06.230Z,100278.91
2023-06-15T11:21:07.888Z,100278.63
2023-06-15T11:26:15.148Z,100280.19
2023-06-15T11:31:17.981Z,100281.13
2023-06-15T11:36:19.626Z,100293.03
2023-06-15T11:41:21.388Z,100299.88
2023-06-15T11:46:24.567Z,100288.22
2023-06-15T11:51:26.551Z,100291.09
2023-06-15T11:56:28.923Z,100263.53
2023-06-15T12:01:32.895Z,100267.94
2023-06-15T12:06:34.950Z,100273.53
2023-06-15T12:11:37.087Z,100285.25
2023-06-15T12:16:39.941Z,100268.75
2023-06-15T12:21:41.799Z,100263.34
2023-06-15T12:26:50.558Z,100256.41
2023-06-15T12:31:54.662Z,100250.19
2023-06-15T12:36:56.745Z,100248.69
2023-06-15T12:42:00.073Z,100248.84
2023-06-15T12:47:01.692Z,100233.00
2023-06-15T12:52:03.463Z,100232.53
2023-06-15T12:57:05.435Z,100230.22
2023-06-15T13:02:07.177Z,100222.84
2023-06-15T13:07:09.739Z,100222.38
2023-06-15T13:12:12.660Z,100209.72
2023-06-15T13:17:14.360Z,100216.53
2023-06-15T13:22:16.045Z,100212.09
2023-06-15T13:27:20.612Z,100210.38
2023-06-15T13:32:22.709Z,100205.22
2023-06-15T13:37:24.346Z,100196.88
2023-06-15T13:42:26.411Z,100192.25
2023-06-15T13:47:28.017Z,100181.16
2023-06-15T13:52:29.675Z,100179.78
2023-06-15T13:57:31.334Z,100185.88
2023-06-15T14:02:33.065Z,100185.50
2023-06-15T14:07:37.636Z,100184.66
2023-06-15T14:12:39.341Z,100165.34
2023-06-15T14:17:41.534Z,100167.69
2023-06-15T14:22:43.284Z,100167.00
2023-06-15T14:27:48.006Z,100166.69
2023-06-15T14:32:49.930Z,100151.88
2023-06-15T14:37:52.364Z,100164.13
2023-06-15T14:42:54.102Z,100147.56
2023-06-15T14:47:55.908Z,100141.66
2023-06-15T14:52:58.445Z,100136.00
2023-06-15T14:58:00.062Z,100139.41
2023-06-15T15:03:01.805Z,100139.09
2023-06-15T15:08:04.169Z,100131.53
2023-06-15T15:13:05.819Z,100135.19
2023-06-15T15:18:07.471Z,100133.59
2023-06-15T15:23:09.167Z,100145.03
2023-06-15T15:28:10.760Z,100143.78
2023-06-15T15:33:12.394Z,100153.03
2023-06-15T15:38:14.054Z,100146.75
2023-06-15T15:43:19.277Z,100151.22
2023-06-15T15:48:20.894Z,100151.34
2023-06-15T15:53:23.667Z,100142.97
2023-06-15T15:58:25.313Z,100157.06
2023-06-15T16:03:27.117Z,100151.16
2023-06-15T16:08:28.841Z,100154.94
2023-06-15T16:13:30.892Z,100156.22
2023-06-15T16:18:32.602Z,100154.78
2023-06-15T16:23:34.296Z,100155.31
2023-06-15T16:28:36.178Z,100162.16
2023-06-15T16:33:37.787Z,100151.22
2023-06-15T16:38:39.433Z,100168.53
2023-06-15T16:43:42.793Z,100176.56
2023-06-15T16:48:44.549Z,100173.31
2023-06-15T16:53:46.230Z,100183.06
2023-06-15T16:58:47.875Z,100183.19
2023-06-15T17:03:49.603Z,100182.66
2023-06-15T17:08:51.416Z,100178.13
2023-06-15T17:13:53.480Z,100180.53
2023-06-15T17:18:55.467Z,100187.97
2023-06-15T17:23:57.138Z,100191.38
2023-06-15T17:28:59.482Z,100191.53
2023-06-15T17:34:01.446Z,100199.75
2023-06-15T17:39:03.515Z,100198.75
2023-06-15T17:44:05.413Z,100201.25
2023-06-15T17:49:07.934Z,100204.41
2023-06-15T17:54:09.562Z,100198.34
2023-06-15T17:59:11.265Z,100198.53
2023-06-15T18:04:12.911Z,100193.81
2023-06-15T18:09:16.399Z,100192.00
2023-06-15T18:14:18.227Z,100201.22
2023-06-15T18:19:19.845Z,100193.53
2023-06-15T18:24:21.762Z,100188.13
2023-06-15T18:29:23.517Z,100181.63
2023-06-15T18:34:25.356Z,100185.84
2023-06-15T18:39:27.093Z,100183.00
2023-06-15T18:44:28.717Z,100186.75
2023-06-15T18:49:30.715Z,100188.44
2023-06-15T18:54:32.722Z,100192.66
2023-06-15T18:59:34.704Z,100196.44
2023-06-15T19:04:36.595Z,100198.75
2023-06-15T19:09:40.625Z,100198.56
2023-06-15T19:14:42.765Z,100197.41
2023-06-15T19:19:44.535Z,100202.88
2023-06-15T19:24:46.150Z,100201.22
2023-06-15T19:29:47.797Z,100203.06
2023-06-15T19:34:49.438Z,100211.09
2023-06-15T19:39:51.291Z,100214.03
2023-06-15T19:44:52.945Z,100225.91
2023-06-15T19:49:54.609Z,100219.25
2023-06-15T19:54:56.213Z,100226.53
2023-06-15T19:59:57.991Z,100230.34
2023-06-15T20:04:59.659Z,100218.44
2023-06-15T20:10:01.968Z,100212.16
2023-06-15T20:15:03.984Z,100212.81
2023-06-15T20:20:06.806Z,100207.78
2023-06-15T20:25:09.282Z,100207.34
2023-06-15T20:30:11.489Z,100217.16
2023-06-15T20:35:13.216Z,100214.66
2023-06-15T20:40:15.087Z,100217.59
2023-06-15T20:45:16.797Z,100219.25
2023-06-15T20:50:18.744Z,100220.31
2023-06-15T20:55:20.883Z,100214.84
2023-06-15T21:00:22.564Z,100219.44
2023-06-15T21:05:24.783Z,100215.91
2023-06-15T21:10:26.808Z,100221.53
2023-06-15T21:15:28.425Z,100210.03
2023-06-15T21:20:30.124Z,100214.00
2023-06-15T21:25:31.744Z,100207.31
2023-06-15T21:30:33.434Z,100208.34
2023-06-15T21:35:35.076Z,100207.00
2023-06-15T21:40:36.698Z,100202.28
2023-06-15T21:45:38.274Z,100209.84
2023-06-15T21:50:39.894Z,100198.44
2023-06-15T21:55:41.525Z,100204.69
2023-06-15T22:00:43.976Z,100206.75
2023-06-15T22:05:46.512Z,100209.41
2023-06-15T22:10:48.338Z,100211.03
2023-06-15T22:15:50.282Z,100207.44
2023-06-15T22:20:54.093Z,100206.03
2023-06-15T22:25:56.783Z,100198.53
2023-06-15T22:30:58.717Z,100200.66
2023-06-15T22:36:00.418Z,100201.59
2023-06-15T22:41:02.010Z,100190.44
2023-06-15T22:46:04.148Z,100191.47
2023-06-15T22:51:05.777Z,100179.63
2023-06-15T22:56:07.524Z,100192.50
2023-06-15T23:01:09.243Z,100187.47
2023-06-15T23:06:10.857Z,100186.50
2023-06-15T23:11:14.204Z,100187.94
2023-06-15T23:16:16.753Z,100193.03
2023-06-15T23:21:22.768Z,100189.72
2023-06-15T23:26:25.431Z,100193.38
2023-06-15T23:31:27.326Z,100195.44
2023-06-15T23:36:28.985Z,100181.84
2023-06-15T23:41:30.609Z,100174.97
2023-06-15T23:46:32.348Z,100168.03
2023-06-15T23:51:34.381Z,100167.44
2023-06-15T23:56:36.102Z,100161.19
